sensor_id;sensor_type;location;lat;lon;timestamp;P1;durP1;ratioP1;P2;durP2;ratioP2
83125;SDS011;73488;47.234;-1.540;2024-03-08T00:02:24;1.60;;;1.23;;
83125;SDS011;73488;47.234;-1.540;2024-03-08T00:04:49;1.38;;;1.05;;
83125;SDS011;73488;47.234;-1.540;2024-03-08T00:07:15;1.95;;;1.55;;
83125;SDS011;73488;47.234;-1.540;2024-03-08T00:09:40;2.42;;;1.58;;
83125;SDS011;73488;47.234;-1.540;2024-03-08T00:12:06;2.17;;;1.23;;
83125;SDS011;73488;47.234;-1.540;2024-03-08T00:14:31;2.45;;;1.55;;
83125;SDS011;73488;47.234;-1.540;2024-03-08T00:16:57;1.90;;;1.02;;
83125;SDS011;73488;47.234;-1.540;2024-03-08T00:19:22;1.98;;;1.30;;
83125;SDS011;73488;47.234;-1.540;2024-03-08T00:21:47;2.78;;;1.10;;
83125;SDS011;73488;47.234;-1.540;2024-03-08T00:24:13;3.47;;;1.33;;
83125;SDS011;73488;47.234;-1.540;2024-03-08T00:26:38;1.73;;;0.90;;
83125;SDS011;73488;47.234;-1.540;2024-03-08T00:29:04;2.42;;;1.60;;
83125;SDS011;73488;47.234;-1.540;2024-03-08T00:31:29;2.13;;;1.00;;
83125;SDS011;73488;47.234;-1.540;2024-03-08T00:33:56;1.20;;;0.88;;
83125;SDS011;73488;47.234;-1.540;2024-03-08T00:36:22;1.45;;;0.85;;
83125;SDS011;73488;47.234;-1.540;2024-03-08T00:38:47;2.00;;;1.08;;
83125;SDS011;73488;47.234;-1.540;2024-03-08T00:41:13;2.45;;;1.48;;
83125;SDS011;73488;47.234;-1.540;2024-03-08T00:43:38;1.45;;;0.93;;
83125;SDS011;73488;47.234;-1.540;2024-03-08T00:46:04;1.65;;;1.15;;
83125;SDS011;73488;47.234;-1.540;2024-03-08T00:48:29;2.90;;;0.70;;
83125;SDS011;73488;47.234;-1.540;2024-03-08T00:50:56;2.05;;;0.93;;
83125;SDS011;73488;47.234;-1.540;2024-03-08T00:53:21;2.38;;;1.40;;
83125;SDS011;73488;47.234;-1.540;2024-03-08T00:55:47;1.98;;;0.95;;
83125;SDS011;73488;47.234;-1.540;2024-03-08T00:58:12;1.88;;;1.05;;
83125;SDS011;73488;47.234;-1.540;2024-03-08T01:00:38;2.53;;;1.20;;
83125;SDS011;73488;47.234;-1.540;2024-03-08T01:03:04;2.50;;;1.20;;
83125;SDS011;73488;47.234;-1.540;2024-03-08T01:05:30;1.40;;;1.10;;
83125;SDS011;73488;47.234;-1.540;2024-03-08T01:07:55;2.72;;;1.13;;
83125;SDS011;73488;47.234;-1.540;2024-03-08T01:10:20;1.88;;;1.23;;
83125;SDS011;73488;47.234;-1.540;2024-03-08T01:12:46;1.50;;;1.02;;
83125;SDS011;73488;47.234;-1.540;2024-03-08T01:15:11;2.13;;;0.98;;
83125;SDS011;73488;47.234;-1.540;2024-03-08T01:17:37;1.85;;;1.05;;
83125;SDS011;73488;47.234;-1.540;2024-03-08T01:20:02;2.08;;;1.08;;
83125;SDS011;73488;47.234;-1.540;2024-03-08T01:22:29;1.58;;;1.00;;
83125;SDS011;73488;47.234;-1.540;2024-03-08T01:24:55;1.75;;;1.23;;
83125;SDS011;73488;47.234;-1.540;2024-03-08T01:27:21;2.33;;;1.20;;
83125;SDS011;73488;47.234;-1.540;2024-03-08T01:29:46;1.58;;;1.23;;
83125;SDS011;73488;47.234;-1.540;2024-03-08T01:32:12;1.65;;;1.05;;
83125;SDS011;73488;47.234;-1.540;2024-03-08T01:34:37;1.50;;;1.00;;
83125;SDS011;73488;47.234;-1.540;2024-03-08T01:37:03;1.95;;;0.88;;
83125;SDS011;73488;47.234;-1.540;2024-03-08T01:39:28;1.58;;;0.93;;
83125;SDS011;73488;47.234;-1.540;2024-03-08T01:41:53;2.40;;;1.13;;
83125;SDS011;73488;47.234;-1.540;2024-03-08T01:44:19;2.45;;;1.02;;
83125;SDS011;73488;47.234;-1.540;2024-03-08T01:46:45;2.95;;;1.10;;
83125;SDS011;73488;47.234;-1.540;2024-03-08T01:49:11;1.38;;;1.13;;
83125;SDS011;73488;47.234;-1.540;2024-03-08T01:51:37;1.70;;;0.98;;
83125;SDS011;73488;47.234;-1.540;2024-03-08T01:54:05;1.52;;;0.90;;
83125;SDS011;73488;47.234;-1.540;2024-03-08T01:56:30;2.13;;;1.02;;
83125;SDS011;73488;47.234;-1.540;2024-03-08T01:58:59;2.63;;;1.05;;
83125;SDS011;73488;47.234;-1.540;2024-03-08T02:01:24;1.50;;;0.93;;
83125;SDS011;73488;47.234;-1.540;2024-03-08T02:03:50;1.23;;;0.80;;
83125;SDS011;73488;47.234;-1.540;2024-03-08T02:06:15;2.10;;;1.15;;
83125;SDS011;73488;47.234;-1.540;2024-03-08T02:08:42;1.40;;;0.90;;
83125;SDS011;73488;47.234;-1.540;2024-03-08T02:11:10;1.75;;;1.20;;
83125;SDS011;73488;47.234;-1.540;2024-03-08T02:13:35;1.20;;;0.88;;
83125;SDS011;73488;47.234;-1.540;2024-03-08T02:16:01;2.10;;;1.00;;
83125;SDS011;73488;47.234;-1.540;2024-03-08T02:18:27;1.70;;;1.55;;
83125;SDS011;73488;47.234;-1.540;2024-03-08T02:20:54;1.45;;;1.00;;
83125;SDS011;73488;47.234;-1.540;2024-03-08T02:23:20;1.63;;;1.38;;
83125;SDS011;73488;47.234;-1.540;2024-03-08T02:25:46;1.60;;;0.95;;
83125;SDS011;73488;47.234;-1.540;2024-03-08T02:28:12;1.55;;;0.80;;
83125;SDS011;73488;47.234;-1.540;2024-03-08T02:30:38;1.40;;;0.93;;
83125;SDS011;73488;47.234;-1.540;2024-03-08T02:33:04;3.60;;;0.82;;
83125;SDS011;73488;47.234;-1.540;2024-03-08T02:35:30;1.77;;;1.05;;
83125;SDS011;73488;47.234;-1.540;2024-03-08T02:37:56;1.73;;;1.25;;
83125;SDS011;73488;47.234;-1.540;2024-03-08T02:40:22;1.63;;;1.30;;
83125;SDS011;73488;47.234;-1.540;2024-03-08T02:42:47;1.42;;;1.20;;
83125;SDS011;73488;47.234;-1.540;2024-03-08T02:45:12;1.63;;;1.02;;
83125;SDS011;73488;47.234;-1.540;2024-03-08T02:47:38;2.25;;;1.00;;
83125;SDS011;73488;47.234;-1.540;2024-03-08T02:50:04;1.42;;;1.15;;
83125;SDS011;73488;47.234;-1.540;2024-03-08T02:52:33;1.92;;;1.50;;
83125;SDS011;73488;47.234;-1.540;2024-03-08T02:55:01;1.17;;;1.00;;
83125;SDS011;73488;47.234;-1.540;2024-03-08T02:57:27;1.70;;;1.00;;
83125;SDS011;73488;47.234;-1.540;2024-03-08T02:59:55;1.20;;;0.90;;
83125;SDS011;73488;47.234;-1.540;2024-03-08T03:02:21;1.40;;;1.00;;
83125;SDS011;73488;47.234;-1.540;2024-03-08T03:04:48;1.73;;;1.38;;
83125;SDS011;73488;47.234;-1.540;2024-03-08T03:07:13;1.30;;;0.95;;
83125;SDS011;73488;47.234;-1.540;2024-03-08T03:09:39;1.80;;;1.20;;
83125;SDS011;73488;47.234;-1.540;2024-03-08T03:12:04;2.63;;;1.33;;
83125;SDS011;73488;47.234;-1.540;2024-03-08T03:14:35;1.80;;;1.25;;
83125;SDS011;73488;47.234;-1.540;2024-03-08T03:17:03;1.30;;;0.98;;
83125;SDS011;73488;47.234;-1.540;2024-03-08T03:19:29;1.60;;;1.08;;
83125;SDS011;73488;47.234;-1.540;2024-03-08T03:21:55;1.92;;;1.00;;
83125;SDS011;73488;47.234;-1.540;2024-03-08T03:24:20;1.70;;;1.20;;
83125;SDS011;73488;47.234;-1.540;2024-03-08T03:26:46;1.42;;;0.98;;
83125;SDS011;73488;47.234;-1.540;2024-03-08T03:29:13;1.63;;;1.15;;
83125;SDS011;73488;47.234;-1.540;2024-03-08T03:31:40;1.70;;;0.95;;
83125;SDS011;73488;47.234;-1.540;2024-03-08T03:34:06;1.65;;;1.20;;
83125;SDS011;73488;47.234;-1.540;2024-03-08T03:36:34;1.98;;;0.98;;
83125;SDS011;73488;47.234;-1.540;2024-03-08T03:39:00;1.52;;;1.42;;
83125;SDS011;73488;47.234;-1.540;2024-03-08T03:41:36;1.33;;;0.90;;
83125;SDS011;73488;47.234;-1.540;2024-03-08T03:44:02;1.67;;;1.15;;
83125;SDS011;73488;47.234;-1.540;2024-03-08T03:46:27;1.52;;;0.93;;
83125;SDS011;73488;47.234;-1.540;2024-03-08T03:48:56;2.22;;;1.02;;
83125;SDS011;73488;47.234;-1.540;2024-03-08T03:51:21;1.30;;;1.15;;
83125;SDS011;73488;47.234;-1.540;2024-03-08T03:53:46;1.00;;;0.70;;
83125;SDS011;73488;47.234;-1.540;2024-03-08T03:56:12;1.40;;;0.88;;
83125;SDS011;73488;47.234;-1.540;2024-03-08T03:58:37;2.42;;;1.08;;
83125;SDS011;73488;47.234;-1.540;2024-03-08T04:01:04;2.25;;;1.00;;
83125;SDS011;73488;47.234;-1.540;2024-03-08T04:03:30;1.33;;;0.90;;
83125;SDS011;73488;47.234;-1.540;2024-03-08T04:05:56;1.67;;;1.00;;
83125;SDS011;73488;47.234;-1.540;2024-03-08T04:08:21;1.38;;;0.80;;
83125;SDS011;73488;47.234;-1.540;2024-03-08T04:10:48;1.67;;;1.10;;
83125;SDS011;73488;47.234;-1.540;2024-03-08T04:13:14;2.58;;;1.17;;
83125;SDS011;73488;47.234;-1.540;2024-03-08T04:15:40;1.98;;;1.25;;
83125;SDS011;73488;47.234;-1.540;2024-03-08T04:18:09;1.40;;;0.90;;
83125;SDS011;73488;47.234;-1.540;2024-03-08T04:20:34;1.77;;;1.15;;
83125;SDS011;73488;47.234;-1.540;2024-03-08T04:23:00;2.30;;;1.45;;
83125;SDS011;73488;47.234;-1.540;2024-03-08T04:25:25;1.30;;;1.10;;
83125;SDS011;73488;47.234;-1.540;2024-03-08T04:27:51;2.00;;;1.30;;
83125;SDS011;73488;47.234;-1.540;2024-03-08T04:30:18;1.30;;;1.00;;
83125;SDS011;73488;47.234;-1.540;2024-03-08T04:32:43;1.23;;;1.13;;
83125;SDS011;73488;47.234;-1.540;2024-03-08T04:35:09;1.27;;;0.70;;
83125;SDS011;73488;47.234;-1.540;2024-03-08T04:37:34;2.00;;;1.23;;
83125;SDS011;73488;47.234;-1.540;2024-03-08T04:39:59;1.30;;;1.20;;
83125;SDS011;73488;47.234;-1.540;2024-03-08T04:42:25;2.20;;;1.17;;
83125;SDS011;73488;47.234;-1.540;2024-03-08T04:44:54;1.67;;;1.58;;
83125;SDS011;73488;47.234;-1.540;2024-03-08T04:47:20;1.42;;;0.93;;
83125;SDS011;73488;47.234;-1.540;2024-03-08T04:49:45;1.48;;;1.20;;
83125;SDS011;73488;47.234;-1.540;2024-03-08T04:52:11;1.30;;;1.10;;
83125;SDS011;73488;47.234;-1.540;2024-03-08T04:54:37;2.72;;;1.13;;
83125;SDS011;73488;47.234;-1.540;2024-03-08T04:57:02;1.85;;;1.08;;
83125;SDS011;73488;47.234;-1.540;2024-03-08T04:59:29;1.40;;;0.90;;
83125;SDS011;73488;47.234;-1.540;2024-03-08T05:01:55;1.40;;;0.82;;
83125;SDS011;73488;47.234;-1.540;2024-03-08T05:04:21;2.28;;;1.10;;
83125;SDS011;73488;47.234;-1.540;2024-03-08T05:06:47;2.10;;;1.20;;
83125;SDS011;73488;47.234;-1.540;2024-03-08T05:09:13;1.30;;;0.90;;
83125;SDS011;73488;47.234;-1.540;2024-03-08T05:11:41;1.73;;;1.00;;
83125;SDS011;73488;47.234;-1.540;2024-03-08T05:14:10;1.60;;;1.30;;
83125;SDS011;73488;47.234;-1.540;2024-03-08T05:16:36;1.30;;;0.90;;
83125;SDS011;73488;47.234;-1.540;2024-03-08T05:19:01;2.05;;;0.88;;
83125;SDS011;73488;47.234;-1.540;2024-03-08T05:21:27;1.60;;;1.20;;
83125;SDS011;73488;47.234;-1.540;2024-03-08T05:23:54;1.83;;;1.42;;
83125;SDS011;73488;47.234;-1.540;2024-03-08T05:26:19;2.15;;;1.10;;
83125;SDS011;73488;47.234;-1.540;2024-03-08T05:28:45;1.80;;;1.25;;
83125;SDS011;73488;47.234;-1.540;2024-03-08T05:31:17;2.30;;;1.67;;
83125;SDS011;73488;47.234;-1.540;2024-03-08T05:33:47;1.30;;;0.80;;
83125;SDS011;73488;47.234;-1.540;2024-03-08T05:36:13;1.45;;;1.13;;
83125;SDS011;73488;47.234;-1.540;2024-03-08T05:38:40;1.50;;;0.80;;
83125;SDS011;73488;47.234;-1.540;2024-03-08T05:41:07;1.83;;;1.25;;
83125;SDS011;73488;47.234;-1.540;2024-03-08T05:43:33;2.17;;;1.25;;
83125;SDS011;73488;47.234;-1.540;2024-03-08T05:45:58;1.50;;;1.02;;
83125;SDS011;73488;47.234;-1.540;2024-03-08T05:48:23;1.35;;;1.08;;
83125;SDS011;73488;47.234;-1.540;2024-03-08T05:50:50;1.30;;;0.95;;
83125;SDS011;73488;47.234;-1.540;2024-03-08T05:53:15;1.40;;;1.08;;
83125;SDS011;73488;47.234;-1.540;2024-03-08T05:55:41;1.52;;;1.42;;
83125;SDS011;73488;47.234;-1.540;2024-03-08T05:58:06;1.52;;;1.10;;
83125;SDS011;73488;47.234;-1.540;2024-03-08T06:00:33;1.20;;;0.80;;
83125;SDS011;73488;47.234;-1.540;2024-03-08T06:02:59;1.50;;;1.10;;
83125;SDS011;73488;47.234;-1.540;2024-03-08T06:05:25;1.95;;;1.10;;
83125;SDS011;73488;47.234;-1.540;2024-03-08T06:07:50;1.55;;;1.27;;
83125;SDS011;73488;47.234;-1.540;2024-03-08T06:10:18;1.40;;;1.00;;
83125;SDS011;73488;47.234;-1.540;2024-03-08T06:12:44;1.35;;;0.93;;
83125;SDS011;73488;47.234;-1.540;2024-03-08T06:15:10;1.10;;;0.85;;
83125;SDS011;73488;47.234;-1.540;2024-03-08T06:17:39;1.50;;;1.40;;
83125;SDS011;73488;47.234;-1.540;2024-03-08T06:20:05;1.38;;;0.90;;
83125;SDS011;73488;47.234;-1.540;2024-03-08T06:22:36;1.58;;;1.23;;
83125;SDS011;73488;47.234;-1.540;2024-03-08T06:25:04;1.70;;;0.95;;
83125;SDS011;73488;47.234;-1.540;2024-03-08T06:27:29;1.73;;;1.63;;
83125;SDS011;73488;47.234;-1.540;2024-03-08T06:29:58;2.03;;;1.15;;
83125;SDS011;73488;47.234;-1.540;2024-03-08T06:32:24;1.27;;;0.90;;
83125;SDS011;73488;47.234;-1.540;2024-03-08T06:34:50;1.42;;;0.93;;
83125;SDS011;73488;47.234;-1.540;2024-03-08T06:37:16;1.50;;;0.75;;
83125;SDS011;73488;47.234;-1.540;2024-03-08T06:39:46;1.27;;;0.90;;
83125;SDS011;73488;47.234;-1.540;2024-03-08T06:42:16;2.42;;;1.15;;
83125;SDS011;73488;47.234;-1.540;2024-03-08T06:44:42;1.95;;;0.98;;
83125;SDS011;73488;47.234;-1.540;2024-03-08T06:47:14;2.25;;;1.02;;
83125;SDS011;73488;47.234;-1.540;2024-03-08T06:49:41;2.70;;;1.05;;
83125;SDS011;73488;47.234;-1.540;2024-03-08T06:52:07;3.50;;;0.80;;
83125;SDS011;73488;47.234;-1.540;2024-03-08T06:54:34;2.20;;;1.15;;
83125;SDS011;73488;47.234;-1.540;2024-03-08T06:57:01;1.73;;;1.00;;
83125;SDS011;73488;47.234;-1.540;2024-03-08T06:59:28;1.77;;;1.23;;
83125;SDS011;73488;47.234;-1.540;2024-03-08T07:01:54;1.67;;;0.80;;
83125;SDS011;73488;47.234;-1.540;2024-03-08T07:04:19;1.90;;;1.23;;
83125;SDS011;73488;47.234;-1.540;2024-03-08T07:06:46;1.35;;;0.80;;
83125;SDS011;73488;47.234;-1.540;2024-03-08T07:09:15;2.50;;;1.02;;
83125;SDS011;73488;47.234;-1.540;2024-03-08T07:11:42;2.28;;;1.08;;
83125;SDS011;73488;47.234;-1.540;2024-03-08T07:14:07;3.03;;;1.58;;
83125;SDS011;73488;47.234;-1.540;2024-03-08T07:16:33;1.73;;;1.27;;
83125;SDS011;73488;47.234;-1.540;2024-03-08T07:19:00;1.98;;;1.10;;
83125;SDS011;73488;47.234;-1.540;2024-03-08T07:21:28;3.20;;;1.20;;
83125;SDS011;73488;47.234;-1.540;2024-03-08T07:23:54;4.05;;;1.20;;
83125;SDS011;73488;47.234;-1.540;2024-03-08T07:26:25;2.63;;;1.35;;
83125;SDS011;73488;47.234;-1.540;2024-03-08T07:31:50;2.22;;;1.00;;
83125;SDS011;73488;47.234;-1.540;2024-03-08T07:34:21;1.60;;;1.17;;
83125;SDS011;73488;47.234;-1.540;2024-03-08T07:36:46;1.55;;;1.15;;
83125;SDS011;73488;47.234;-1.540;2024-03-08T07:39:12;2.42;;;1.17;;
83125;SDS011;73488;47.234;-1.540;2024-03-08T07:41:38;2.33;;;1.48;;
83125;SDS011;73488;47.234;-1.540;2024-03-08T07:44:07;1.83;;;1.00;;
83125;SDS011;73488;47.234;-1.540;2024-03-08T07:46:32;2.33;;;1.17;;
83125;SDS011;73488;47.234;-1.540;2024-03-08T07:48:59;1.60;;;1.00;;
83125;SDS011;73488;47.234;-1.540;2024-03-08T07:51:25;3.28;;;1.10;;
83125;SDS011;73488;47.234;-1.540;2024-03-08T07:53:50;10.15;;;1.45;;
83125;SDS011;73488;47.234;-1.540;2024-03-08T07:56:16;2.92;;;1.00;;
83125;SDS011;73488;47.234;-1.540;2024-03-08T07:58:43;1.75;;;1.10;;
83125;SDS011;73488;47.234;-1.540;2024-03-08T08:01:18;2.47;;;1.30;;
83125;SDS011;73488;47.234;-1.540;2024-03-08T08:03:44;2.80;;;1.40;;
83125;SDS011;73488;47.234;-1.540;2024-03-08T08:06:10;2.42;;;1.00;;
83125;SDS011;73488;47.234;-1.540;2024-03-08T08:08:41;1.83;;;1.02;;
83125;SDS011;73488;47.234;-1.540;2024-03-08T08:11:07;2.33;;;1.10;;
83125;SDS011;73488;47.234;-1.540;2024-03-08T08:13:34;1.38;;;0.90;;
83125;SDS011;73488;47.234;-1.540;2024-03-08T08:16:01;2.92;;;1.10;;
83125;SDS011;73488;47.234;-1.540;2024-03-08T08:18:27;1.80;;;0.98;;
83125;SDS011;73488;47.234;-1.540;2024-03-08T08:20:54;3.50;;;1.13;;
83125;SDS011;73488;47.234;-1.540;2024-03-08T08:23:20;2.30;;;1.17;;
83125;SDS011;73488;47.234;-1.540;2024-03-08T08:25:46;2.95;;;1.17;;
83125;SDS011;73488;47.234;-1.540;2024-03-08T08:28:11;2.45;;;1.25;;
83125;SDS011;73488;47.234;-1.540;2024-03-08T08:30:37;2.97;;;1.38;;
83125;SDS011;73488;47.234;-1.540;2024-03-08T08:33:03;3.88;;;1.15;;
83125;SDS011;73488;47.234;-1.540;2024-03-08T08:35:30;2.65;;;1.27;;
83125;SDS011;73488;47.234;-1.540;2024-03-08T08:37:56;3.20;;;1.45;;
83125;SDS011;73488;47.234;-1.540;2024-03-08T08:40:23;2.33;;;1.27;;
83125;SDS011;73488;47.234;-1.540;2024-03-08T08:42:50;2.42;;;1.23;;
83125;SDS011;73488;47.234;-1.540;2024-03-08T08:45:17;3.33;;;1.45;;
83125;SDS011;73488;47.234;-1.540;2024-03-08T08:47:44;4.03;;;1.40;;
83125;SDS011;73488;47.234;-1.540;2024-03-08T08:50:10;2.10;;;1.30;;
83125;SDS011;73488;47.234;-1.540;2024-03-08T08:52:37;2.88;;;1.23;;
83125;SDS011;73488;47.234;-1.540;2024-03-08T08:55:04;3.80;;;1.38;;
83125;SDS011;73488;47.234;-1.540;2024-03-08T08:57:31;3.58;;;1.30;;
83125;SDS011;73488;47.234;-1.540;2024-03-08T08:59:58;3.78;;;1.40;;
83125;SDS011;73488;47.234;-1.540;2024-03-08T09:02:25;3.47;;;1.33;;
83125;SDS011;73488;47.234;-1.540;2024-03-08T09:04:51;2.50;;;1.42;;
83125;SDS011;73488;47.234;-1.540;2024-03-08T09:07:16;3.30;;;1.40;;
83125;SDS011;73488;47.234;-1.540;2024-03-08T09:09:43;5.75;;;1.50;;
83125;SDS011;73488;47.234;-1.540;2024-03-08T09:12:09;2.38;;;1.48;;
83125;SDS011;73488;47.234;-1.540;2024-03-08T09:17:03;2.63;;;1.42;;
83125;SDS011;73488;47.234;-1.540;2024-03-08T09:19:29;2.67;;;1.15;;
83125;SDS011;73488;47.234;-1.540;2024-03-08T09:21:54;4.90;;;1.58;;
83125;SDS011;73488;47.234;-1.540;2024-03-08T09:24:20;2.70;;;1.25;;
83125;SDS011;73488;47.234;-1.540;2024-03-08T09:26:45;3.90;;;1.25;;
83125;SDS011;73488;47.234;-1.540;2024-03-08T09:29:11;3.00;;;1.20;;
83125;SDS011;73488;47.234;-1.540;2024-03-08T09:31:36;3.72;;;1.50;;
83125;SDS011;73488;47.234;-1.540;2024-03-08T09:34:03;3.03;;;1.35;;
83125;SDS011;73488;47.234;-1.540;2024-03-08T09:36:28;3.28;;;1.02;;
83125;SDS011;73488;47.234;-1.540;2024-03-08T09:38:55;3.38;;;1.20;;
83125;SDS011;73488;47.234;-1.540;2024-03-08T09:41:20;2.45;;;1.50;;
83125;SDS011;73488;47.234;-1.540;2024-03-08T09:43:46;1.80;;;1.23;;
83125;SDS011;73488;47.234;-1.540;2024-03-08T09:46:11;3.38;;;1.40;;
83125;SDS011;73488;47.234;-1.540;2024-03-08T09:48:39;2.75;;;1.60;;
83125;SDS011;73488;47.234;-1.540;2024-03-08T09:51:06;2.28;;;1.10;;
83125;SDS011;73488;47.234;-1.540;2024-03-08T09:53:32;1.73;;;1.20;;
83125;SDS011;73488;47.234;-1.540;2024-03-08T09:55:58;4.38;;;1.27;;
83125;SDS011;73488;47.234;-1.540;2024-03-08T09:58:24;5.03;;;1.23;;
83125;SDS011;73488;47.234;-1.540;2024-03-08T10:00:52;2.55;;;1.85;;
83125;SDS011;73488;47.234;-1.540;2024-03-08T10:03:19;3.00;;;1.08;;
83125;SDS011;73488;47.234;-1.540;2024-03-08T10:05:45;3.58;;;1.20;;
83125;SDS011;73488;47.234;-1.540;2024-03-08T10:08:11;3.85;;;1.17;;
83125;SDS011;73488;47.234;-1.540;2024-03-08T10:10:38;3.72;;;1.10;;
83125;SDS011;73488;47.234;-1.540;2024-03-08T10:13:07;3.72;;;1.40;;
83125;SDS011;73488;47.234;-1.540;2024-03-08T10:15:33;3.10;;;1.23;;
83125;SDS011;73488;47.234;-1.540;2024-03-08T10:17:58;2.88;;;1.50;;
83125;SDS011;73488;47.234;-1.540;2024-03-08T10:20:24;2.45;;;1.23;;
83125;SDS011;73488;47.234;-1.540;2024-03-08T10:22:51;2.00;;;1.40;;
83125;SDS011;73488;47.234;-1.540;2024-03-08T10:25:19;1.77;;;1.10;;
83125;SDS011;73488;47.234;-1.540;2024-03-08T10:27:44;2.00;;;1.33;;
83125;SDS011;73488;47.234;-1.540;2024-03-08T10:30:10;2.75;;;1.45;;
83125;SDS011;73488;47.234;-1.540;2024-03-08T10:32:46;2.45;;;1.30;;
83125;SDS011;73488;47.234;-1.540;2024-03-08T10:35:12;2.72;;;1.38;;
83125;SDS011;73488;47.234;-1.540;2024-03-08T10:37:47;2.05;;;1.33;;
83125;SDS011;73488;47.234;-1.540;2024-03-08T10:40:19;4.82;;;1.85;;
83125;SDS011;73488;47.234;-1.540;2024-03-08T10:42:57;2.78;;;1.30;;
83125;SDS011;73488;47.234;-1.540;2024-03-08T10:45:39;3.10;;;1.30;;
83125;SDS011;73488;47.234;-1.540;2024-03-08T10:50:47;2.92;;;1.17;;
83125;SDS011;73488;47.234;-1.540;2024-03-08T10:53:15;3.05;;;1.25;;
83125;SDS011;73488;47.234;-1.540;2024-03-08T10:55:43;3.40;;;1.63;;
83125;SDS011;73488;47.234;-1.540;2024-03-08T10:58:09;2.88;;;1.38;;
83125;SDS011;73488;47.234;-1.540;2024-03-08T11:00:37;3.35;;;1.30;;
83125;SDS011;73488;47.234;-1.540;2024-03-08T11:03:03;2.28;;;1.30;;
83125;SDS011;73488;47.234;-1.540;2024-03-08T11:05:38;2.00;;;1.20;;
83125;SDS011;73488;47.234;-1.540;2024-03-08T11:08:26;2.78;;;1.40;;
83125;SDS011;73488;47.234;-1.540;2024-03-08T11:10:52;3.17;;;1.55;;
83125;SDS011;73488;47.234;-1.540;2024-03-08T11:13:33;1.98;;;1.30;;
83125;SDS011;73488;47.234;-1.540;2024-03-08T11:16:11;2.33;;;1.27;;
83125;SDS011;73488;47.234;-1.540;2024-03-08T11:18:54;1.83;;;1.33;;
83125;SDS011;73488;47.234;-1.540;2024-03-08T11:21:22;3.78;;;1.30;;
83125;SDS011;73488;47.234;-1.540;2024-03-08T11:24:00;2.55;;;1.15;;
83125;SDS011;73488;47.234;-1.540;2024-03-08T11:26:26;2.83;;;1.63;;
83125;SDS011;73488;47.234;-1.540;2024-03-08T11:28:52;1.90;;;1.10;;
83125;SDS011;73488;47.234;-1.540;2024-03-08T11:33:46;2.33;;;1.60;;
83125;SDS011;73488;47.234;-1.540;2024-03-08T11:36:14;2.03;;;1.10;;
83125;SDS011;73488;47.234;-1.540;2024-03-08T11:38:47;2.15;;;1.40;;
83125;SDS011;73488;47.234;-1.540;2024-03-08T11:41:24;3.22;;;1.30;;
83125;SDS011;73488;47.234;-1.540;2024-03-08T11:43:50;1.60;;;1.33;;
83125;SDS011;73488;47.234;-1.540;2024-03-08T11:48:55;3.60;;;1.27;;
83125;SDS011;73488;47.234;-1.540;2024-03-08T11:51:23;4.00;;;1.50;;
83125;SDS011;73488;47.234;-1.540;2024-03-08T11:53:49;2.70;;;1.45;;
83125;SDS011;73488;47.234;-1.540;2024-03-08T11:56:15;1.90;;;1.20;;
83125;SDS011;73488;47.234;-1.540;2024-03-08T11:58:41;2.22;;;1.23;;
83125;SDS011;73488;47.234;-1.540;2024-03-08T12:01:07;2.58;;;1.30;;
83125;SDS011;73488;47.234;-1.540;2024-03-08T12:03:42;2.22;;;1.30;;
83125;SDS011;73488;47.234;-1.540;2024-03-08T12:06:11;2.30;;;1.23;;
83125;SDS011;73488;47.234;-1.540;2024-03-08T12:08:38;1.85;;;1.30;;
83125;SDS011;73488;47.234;-1.540;2024-03-08T12:11:04;2.45;;;1.25;;
83125;SDS011;73488;47.234;-1.540;2024-03-08T12:13:30;2.63;;;1.60;;
83125;SDS011;73488;47.234;-1.540;2024-03-08T12:15:57;2.78;;;1.50;;
83125;SDS011;73488;47.234;-1.540;2024-03-08T12:18:28;2.10;;;1.33;;
83125;SDS011;73488;47.234;-1.540;2024-03-08T12:21:07;2.40;;;1.50;;
83125;SDS011;73488;47.234;-1.540;2024-03-08T12:23:35;2.58;;;1.38;;
83125;SDS011;73488;47.234;-1.540;2024-03-08T12:26:15;2.50;;;1.23;;
83125;SDS011;73488;47.234;-1.540;2024-03-08T12:28:42;4.28;;;2.38;;
83125;SDS011;73488;47.234;-1.540;2024-03-08T12:31:14;5.15;;;2.42;;
83125;SDS011;73488;47.234;-1.540;2024-03-08T12:38:45;6.93;;;2.08;;
83125;SDS011;73488;47.234;-1.540;2024-03-08T12:41:13;5.88;;;2.45;;
83125;SDS011;73488;47.234;-1.540;2024-03-08T12:43:39;4.95;;;2.15;;
83125;SDS011;73488;47.234;-1.540;2024-03-08T12:46:04;5.03;;;1.70;;
83125;SDS011;73488;47.234;-1.540;2024-03-08T12:48:33;3.63;;;2.20;;
83125;SDS011;73488;47.234;-1.540;2024-03-08T12:51:00;5.35;;;2.03;;
83125;SDS011;73488;47.234;-1.540;2024-03-08T12:53:26;6.53;;;2.00;;
83125;SDS011;73488;47.234;-1.540;2024-03-08T12:55:54;4.05;;;1.90;;
83125;SDS011;73488;47.234;-1.540;2024-03-08T12:58:21;4.03;;;1.98;;
83125;SDS011;73488;47.234;-1.540;2024-03-08T13:00:46;6.38;;;1.95;;
83125;SDS011;73488;47.234;-1.540;2024-03-08T13:03:12;5.40;;;1.95;;
83125;SDS011;73488;47.234;-1.540;2024-03-08T13:05:38;3.47;;;2.00;;
83125;SDS011;73488;47.234;-1.540;2024-03-08T13:08:05;3.67;;;2.03;;
83125;SDS011;73488;47.234;-1.540;2024-03-08T13:10:36;3.92;;;2.28;;
83125;SDS011;73488;47.234;-1.540;2024-03-08T13:13:01;3.53;;;1.33;;
83125;SDS011;73488;47.234;-1.540;2024-03-08T13:15:28;5.50;;;2.13;;
83125;SDS011;73488;47.234;-1.540;2024-03-08T13:17:54;5.65;;;1.98;;
83125;SDS011;73488;47.234;-1.540;2024-03-08T13:20:22;5.38;;;1.90;;
83125;SDS011;73488;47.234;-1.540;2024-03-08T13:22:48;7.47;;;2.00;;
83125;SDS011;73488;47.234;-1.540;2024-03-08T13:25:13;4.78;;;2.03;;
83125;SDS011;73488;47.234;-1.540;2024-03-08T13:27:42;2.80;;;1.90;;
83125;SDS011;73488;47.234;-1.540;2024-03-08T13:30:11;3.22;;;1.73;;
83125;SDS011;73488;47.234;-1.540;2024-03-08T13:32:43;4.75;;;1.52;;
83125;SDS011;73488;47.234;-1.540;2024-03-08T13:35:09;2.92;;;1.67;;
83125;SDS011;73488;47.234;-1.540;2024-03-08T13:37:41;5.93;;;1.85;;
83125;SDS011;73488;47.234;-1.540;2024-03-08T13:42:36;2.83;;;2.00;;
83125;SDS011;73488;47.234;-1.540;2024-03-08T13:45:03;3.33;;;1.88;;
83125;SDS011;73488;47.234;-1.540;2024-03-08T13:47:32;6.00;;;2.78;;
83125;SDS011;73488;47.234;-1.540;2024-03-08T13:49:57;3.35;;;1.58;;
83125;SDS011;73488;47.234;-1.540;2024-03-08T13:52:23;5.80;;;1.73;;
83125;SDS011;73488;47.234;-1.540;2024-03-08T13:54:50;3.40;;;1.90;;
83125;SDS011;73488;47.234;-1.540;2024-03-08T13:57:16;3.45;;;1.52;;
83125;SDS011;73488;47.234;-1.540;2024-03-08T13:59:42;3.95;;;1.52;;
83125;SDS011;73488;47.234;-1.540;2024-03-08T14:02:07;3.85;;;1.73;;
83125;SDS011;73488;47.234;-1.540;2024-03-08T14:04:38;4.93;;;1.98;;
83125;SDS011;73488;47.234;-1.540;2024-03-08T14:07:04;3.75;;;1.80;;
83125;SDS011;73488;47.234;-1.540;2024-03-08T14:09:33;3.03;;;1.52;;
83125;SDS011;73488;47.234;-1.540;2024-03-08T14:12:02;2.40;;;1.45;;
83125;SDS011;73488;47.234;-1.540;2024-03-08T14:14:32;4.85;;;1.58;;
83125;SDS011;73488;47.234;-1.540;2024-03-08T14:16:59;4.22;;;1.75;;
83125;SDS011;73488;47.234;-1.540;2024-03-08T14:19:24;3.20;;;1.63;;
83125;SDS011;73488;47.234;-1.540;2024-03-08T14:21:50;3.30;;;1.75;;
83125;SDS011;73488;47.234;-1.540;2024-03-08T14:24:18;5.57;;;1.98;;
83125;SDS011;73488;47.234;-1.540;2024-03-08T14:26:44;2.60;;;1.52;;
83125;SDS011;73488;47.234;-1.540;2024-03-08T14:29:10;2.10;;;1.50;;
83125;SDS011;73488;47.234;-1.540;2024-03-08T14:31:36;3.50;;;2.00;;
83125;SDS011;73488;47.234;-1.540;2024-03-08T14:34:02;3.30;;;1.60;;
83125;SDS011;73488;47.234;-1.540;2024-03-08T14:36:28;4.32;;;1.92;;
83125;SDS011;73488;47.234;-1.540;2024-03-08T14:38:54;3.30;;;1.60;;
83125;SDS011;73488;47.234;-1.540;2024-03-08T14:41:20;3.38;;;1.52;;
83125;SDS011;73488;47.234;-1.540;2024-03-08T14:43:47;3.95;;;1.73;;
83125;SDS011;73488;47.234;-1.540;2024-03-08T14:46:13;2.88;;;1.77;;
83125;SDS011;73488;47.234;-1.540;2024-03-08T14:48:48;2.53;;;1.95;;
83125;SDS011;73488;47.234;-1.540;2024-03-08T14:53:44;3.45;;;1.30;;
83125;SDS011;73488;47.234;-1.540;2024-03-08T14:56:10;6.00;;;1.50;;